createdAt,value
2023-01-13T00:01:30.872Z,26.20
2023-01-13T00:04:01.024Z,26.55
2023-01-13T00:06:27.885Z,25.05
2023-01-13T00:08:59.369Z,26.25
2023-01-13T00:11:26.446Z,23.42
2023-01-13T00:13:55.926Z,21.65
2023-01-13T00:16:22.550Z,25.13
2023-01-13T00:18:51.198Z,21.98
2023-01-13T00:21:22.555Z,27.75
2023-01-13T00:23:49.565Z,23.90
2023-01-13T00:26:18.912Z,24.40
2023-01-13T00:31:21.185Z,26.40
2023-01-13T00:33:53.516Z,22.63
2023-01-13T00:36:21.074Z,28.60
2023-01-13T00:38:50.442Z,24.92
2023-01-13T00:41:22.191Z,24.23
2023-01-13T00:43:51.576Z,25.70
2023-01-13T00:48:52.920Z,21.88
2023-01-13T00:51:24.284Z,26.50
2023-01-13T00:53:51.947Z,25.15
2023-01-13T00:56:34.067Z,26.90
2023-01-13T00:59:07.139Z,25.17
2023-01-13T01:01:36.138Z,26.70
2023-01-13T01:04:07.230Z,32.20
2023-01-13T01:06:36.006Z,32.55
2023-01-13T01:09:03.205Z,30.35
2023-01-13T01:11:34.515Z,27.55
2023-01-13T01:14:03.355Z,31.13
2023-01-13T01:16:33.457Z,27.95
2023-01-13T01:19:03.734Z,25.38
2023-01-13T01:21:33.255Z,26.75
2023-01-13T01:24:01.639Z,23.25
2023-01-13T01:26:31.909Z,25.45
2023-01-13T01:29:02.277Z,23.27
2023-01-13T01:31:35.474Z,25.33
2023-01-13T01:34:02.546Z,27.92
2023-01-13T01:36:34.954Z,27.05
2023-01-13T01:39:01.617Z,27.98
2023-01-13T01:41:36.881Z,30.77
2023-01-13T01:44:25.142Z,31.48
2023-01-13T01:46:52.207Z,30.35
2023-01-13T01:49:24.279Z,30.58
2023-01-13T01:52:08.811Z,29.08
2023-01-13T01:54:35.303Z,31.27
2023-01-13T01:57:01.929Z,29.58
2023-01-13T01:59:32.071Z,25.13
2023-01-13T02:01:59.092Z,28.27
2023-01-13T02:04:33.133Z,29.25
2023-01-13T02:07:04.392Z,25.30
2023-01-13T02:09:31.229Z,24.90
2023-01-13T02:12:16.204Z,27.67
2023-01-13T02:14:44.347Z,30.83
2023-01-13T02:17:33.557Z,33.78
2023-01-13T02:20:27.832Z,34.60
2023-01-13T02:23:47.038Z,35.30
2023-01-13T02:26:16.692Z,30.25
2023-01-13T02:29:16.488Z,30.45
2023-01-13T02:31:48.334Z,27.00
2023-01-13T02:34:30.030Z,28.20
2023-01-13T02:39:35.499Z,30.00
2023-01-13T02:42:51.802Z,27.50
2023-01-13T02:45:19.305Z,36.03
2023-01-13T02:47:50.628Z,36.92
2023-01-13T02:50:28.987Z,35.47
2023-01-13T02:53:02.333Z,34.10
2023-01-13T02:55:46.334Z,30.65
2023-01-13T02:58:20.653Z,29.67
2023-01-13T03:00:49.214Z,33.30
2023-01-13T03:03:15.873Z,31.20
2023-01-13T03:05:44.843Z,32.20
2023-01-13T03:08:22.744Z,27.38
2023-01-13T03:11:10.237Z,27.17
2023-01-13T03:13:55.621Z,26.17
2023-01-13T03:16:46.852Z,28.30
2023-01-13T03:20:04.362Z,27.60
2023-01-13T03:22:36.915Z,28.13
2023-01-13T03:25:18.401Z,29.30
2023-01-13T03:27:53.464Z,26.98
2023-01-13T03:30:30.888Z,27.27
2023-01-13T03:33:06.793Z,30.55
2023-01-13T03:35:56.151Z,24.30
2023-01-13T03:38:28.361Z,25.92
2023-01-13T03:40:59.627Z,26.15
2023-01-13T03:43:54.592Z,24.55
2023-01-13T03:46:41.324Z,24.75
2023-01-13T03:49:12.292Z,25.45
2023-01-13T03:51:45.584Z,26.38
2023-01-13T03:54:14.266Z,28.65
2023-01-13T03:56:54.719Z,30.50
2023-01-13T03:59:29.535Z,27.33
2023-01-13T04:02:14.175Z,27.60
2023-01-13T04:05:03.001Z,25.30
2023-01-13T04:07:44.809Z,23.55
2023-01-13T04:10:14.159Z,24.30
2023-01-13T04:13:01.039Z,28.23
2023-01-13T04:15:59.210Z,27.58
2023-01-13T04:18:27.806Z,26.60
2023-01-13T04:20:57.499Z,27.25
2023-01-13T04:23:24.651Z,27.33
2023-01-13T04:25:51.817Z,25.45
2023-01-13T04:28:21.692Z,27.23
2023-01-13T04:30:51.137Z,25.70
2023-01-13T04:33:19.514Z,27.15
2023-01-13T04:35:46.949Z,26.05
2023-01-13T04:38:16.672Z,26.40
2023-01-13T04:40:43.474Z,24.40
2023-01-13T04:43:12.438Z,28.35
2023-01-13T04:45:39.197Z,27.35
2023-01-13T04:48:09.015Z,26.25
2023-01-13T04:50:40.541Z,24.63
2023-01-13T04:53:07.489Z,24.08
2023-01-13T04:55:34.179Z,26.00
2023-01-13T04:58:10.282Z,23.33
2023-01-13T05:00:39.693Z,25.08
2023-01-13T05:05:35.529Z,19.80
2023-01-13T05:08:02.192Z,21.17
2023-01-13T05:10:28.868Z,21.67
2023-01-13T05:13:13.951Z,25.67
2023-01-13T05:16:21.295Z,22.98
2023-01-13T05:18:47.858Z,26.50
2023-01-13T05:21:34.393Z,26.65
2023-01-13T05:24:19.782Z,19.63
2023-01-13T05:26:50.898Z,25.33
2023-01-13T05:29:19.682Z,25.30
2023-01-13T05:31:48.697Z,25.30
2023-01-13T05:34:15.315Z,24.83
2023-01-13T05:36:44.147Z,23.58
2023-01-13T05:39:10.722Z,26.60
2023-01-13T05:41:55.579Z,22.77
2023-01-13T05:44:25.670Z,22.30
2023-01-13T05:46:52.277Z,21.63
2023-01-13T05:49:18.847Z,23.48
2023-01-13T05:51:45.585Z,26.73
2023-01-13T05:54:14.424Z,23.60
2023-01-13T05:56:41.050Z,19.95
2023-01-13T05:59:10.082Z,19.30
2023-01-13T06:01:37.221Z,18.65
2023-01-13T06:04:09.171Z,19.73
2023-01-13T06:06:35.732Z,22.75
2023-01-13T06:09:04.579Z,19.58
2023-01-13T06:11:33.396Z,17.70
2023-01-13T06:14:03.098Z,20.33
2023-01-13T06:16:31.945Z,19.42
2023-01-13T06:19:01.533Z,21.52
2023-01-13T06:21:32.399Z,19.27
2023-01-13T06:24:02.003Z,18.38
2023-01-13T06:26:36.221Z,17.77
2023-01-13T06:29:02.796Z,20.27
2023-01-13T06:31:33.392Z,19.10
2023-01-13T06:34:08.915Z,19.85
2023-01-13T06:36:49.764Z,18.75
2023-01-13T06:39:19.877Z,20.60
2023-01-13T06:42:08.208Z,21.17
2023-01-13T06:44:34.841Z,24.25
2023-01-13T06:47:06.253Z,29.88
2023-01-13T06:49:35.288Z,33.70
2023-01-13T06:52:01.870Z,24.05
2023-01-13T06:54:35.587Z,22.23
2023-01-13T06:57:02.592Z,25.83
2023-01-13T06:59:29.318Z,26.75
2023-01-13T07:01:56.145Z,27.30
2023-01-13T07:04:22.852Z,25.45
2023-01-13T07:06:51.640Z,26.42
2023-01-13T07:09:18.544Z,28.83
2023-01-13T07:11:45.176Z,28.27
2023-01-13T07:14:32.777Z,26.77
2023-01-13T07:16:59.377Z,28.48
2023-01-13T07:19:28.467Z,43.00
2023-01-13T07:21:59.894Z,28.73
2023-01-13T07:24:28.729Z,25.15
2023-01-13T07:26:55.298Z,25.13
2023-01-13T07:29:24.446Z,24.25
2023-01-13T07:31:53.178Z,23.38
2023-01-13T07:34:19.815Z,26.25
2023-01-13T07:36:51.418Z,27.27
2023-01-13T07:39:18.062Z,24.77
2023-01-13T07:42:03.312Z,20.88
2023-01-13T07:44:30.046Z,25.85
2023-01-13T07:46:58.883Z,25.60
2023-01-13T07:49:27.951Z,21.73
2023-01-13T07:51:56.785Z,24.27
2023-01-13T07:54:35.237Z,20.67
2023-01-13T07:57:06.607Z,24.77
2023-01-13T07:59:35.409Z,23.33
2023-01-13T08:02:04.655Z,17.63
2023-01-13T08:07:00.162Z,20.50
2023-01-13T08:09:26.761Z,20.08
2023-01-13T08:12:14.597Z,17.75
2023-01-13T08:17:10.711Z,22.35
2023-01-13T08:19:37.271Z,21.83
2023-01-13T08:22:04.030Z,21.83
2023-01-13T08:24:32.958Z,23.40
2023-01-13T08:26:59.515Z,16.95
2023-01-13T08:29:26.113Z,22.90
2023-01-13T08:31:55.177Z,23.77
2023-01-13T08:34:21.783Z,25.58
2023-01-13T08:36:49.959Z,28.80
2023-01-13T08:39:19.102Z,21.70
2023-01-13T08:41:58.493Z,19.42
2023-01-13T08:44:30.407Z,18.85
2023-01-13T08:46:57.851Z,18.42
2023-01-13T08:49:27.877Z,17.33
2023-01-13T08:51:59.380Z,17.80
2023-01-13T08:54:25.987Z,17.75
2023-01-13T08:56:57.502Z,19.10
2023-01-13T08:59:26.514Z,20.70
2023-01-13T09:01:53.193Z,22.40
2023-01-13T09:04:23.199Z,23.77
2023-01-13T09:06:52.239Z,21.05
2023-01-13T09:09:18.905Z,30.35
2023-01-13T09:12:06.922Z,43.53
2023-01-13T09:14:36.081Z,31.60
2023-01-13T09:17:07.534Z,23.85
2023-01-13T09:19:34.449Z,25.45
2023-01-13T09:22:03.944Z,27.23
2023-01-13T09:24:35.308Z,23.70
2023-01-13T09:27:07.133Z,20.92
2023-01-13T09:29:33.906Z,23.27
2023-01-13T09:32:02.567Z,19.25
2023-01-13T09:34:47.752Z,18.73
2023-01-13T09:37:16.564Z,25.23
2023-01-13T09:39:43.218Z,20.35
2023-01-13T09:42:50.341Z,22.77
2023-01-13T09:45:32.644Z,19.77
2023-01-13T09:48:25.233Z,24.80
2023-01-13T09:50:55.124Z,21.38
2023-01-13T09:53:32.336Z,25.20
2023-01-13T09:56:00.978Z,25.23
2023-01-13T09:58:30.333Z,21.67
2023-01-13T10:03:38.668Z,21.70
2023-01-13T10:06:36.551Z,26.55
2023-01-13T10:09:05.932Z,23.70
2023-01-13T10:14:31.001Z,18.42
2023-01-13T10:17:22.589Z,23.48
2023-01-13T10:19:59.739Z,24.08
2023-01-13T10:22:47.830Z,22.58
2023-01-13T10:25:27.758Z,24.17
2023-01-13T10:27:56.462Z,26.63
2023-01-13T10:30:35.071Z,24.63
2023-01-13T10:33:17.569Z,24.40
2023-01-13T10:35:57.809Z,21.65
2023-01-13T10:38:27.112Z,25.67
2023-01-13T10:43:25.817Z,24.30
2023-01-13T10:45:58.786Z,25.85
2023-01-13T10:48:36.232Z,26.58
2023-01-13T10:51:29.064Z,25.92
2023-01-13T10:54:14.733Z,25.92
2023-01-13T10:56:44.964Z,26.92
2023-01-13T10:59:24.827Z,23.83
2023-01-13T11:02:01.158Z,23.80
2023-01-13T11:04:35.110Z,35.60
2023-01-13T11:07:06.627Z,26.73
2023-01-13T11:09:33.643Z,23.60
2023-01-13T11:12:00.406Z,25.60
2023-01-13T11:14:41.928Z,30.05
2023-01-13T11:17:20.430Z,32.65
2023-01-13T11:19:53.983Z,27.02
2023-01-13T11:22:28.831Z,25.85
2023-01-13T11:24:58.919Z,24.05
2023-01-13T11:27:31.393Z,28.25
2023-01-13T11:30:01.149Z,27.13
2023-01-13T11:32:34.953Z,26.98
2023-01-13T11:35:15.421Z,30.38
2023-01-13T11:37:47.755Z,26.52
2023-01-13T11:40:25.991Z,28.83
2023-01-13T11:43:18.311Z,23.98
2023-01-13T11:45:59.726Z,30.27
2023-01-13T11:48:35.726Z,32.42
2023-01-13T11:51:16.737Z,25.88
2023-01-13T11:53:49.284Z,28.83
2023-01-13T11:56:30.457Z,25.85
2023-01-13T11:59:12.291Z,28.92
2023-01-13T12:01:44.920Z,28.92
2023-01-13T12:04:29.361Z,26.83
2023-01-13T12:07:19.236Z,29.30
2023-01-13T12:10:34.336Z,26.23
2023-01-13T12:13:07.115Z,31.65
2023-01-13T12:15:56.596Z,33.15
2023-01-13T12:18:38.318Z,30.20
2023-01-13T12:23:51.657Z,33.70
2023-01-13T12:26:18.742Z,44.10
2023-01-13T12:28:56.965Z,32.30
2023-01-13T12:31:25.134Z,42.72
2023-01-13T12:33:54.558Z,33.30
2023-01-13T12:36:33.121Z,28.05
2023-01-13T12:39:25.777Z,30.42
2023-01-13T12:42:13.602Z,32.58
2023-01-13T12:47:38.017Z,31.70
2023-01-13T12:50:22.936Z,33.25
2023-01-13T12:52:56.628Z,31.95
2023-01-13T12:55:35.208Z,34.65
2023-01-13T12:58:04.781Z,33.70
2023-01-13T13:01:00.109Z,35.83
2023-01-13T13:03:37.235Z,33.42
2023-01-13T13:06:06.245Z,38.80
2023-01-13T13:08:51.146Z,37.95
2023-01-13T13:11:40.731Z,36.83
2023-01-13T13:14:13.759Z,34.38
2023-01-13T13:16:51.156Z,39.38
2023-01-13T13:19:17.717Z,34.20
2023-01-13T13:22:11.833Z,35.70
2023-01-13T13:24:44.320Z,38.10
2023-01-13T13:27:21.938Z,31.83
2023-01-13T13:30:06.574Z,36.78
2023-01-13T13:32:41.613Z,30.88
2023-01-13T13:35:08.168Z,32.17
2023-01-13T13:38:17.817Z,31.83
2023-01-13T13:41:06.956Z,34.03
2023-01-13T13:44:19.055Z,29.45
2023-01-13T13:46:49.478Z,29.70
2023-01-13T13:49:36.473Z,27.48
2023-01-13T13:52:10.938Z,27.58
2023-01-13T13:54:44.125Z,30.73
2023-01-13T13:57:19.789Z,34.38
2023-01-13T13:59:54.112Z,28.77
2023-01-13T14:02:36.478Z,32.65
2023-01-13T14:05:30.537Z,30.65
2023-01-13T14:08:03.935Z,30.60
2023-01-13T14:10:37.352Z,30.67
2023-01-13T14:13:35.412Z,27.45
2023-01-13T14:16:07.293Z,27.42
2023-01-13T14:18:45.831Z,29.27
2023-01-13T14:21:20.357Z,30.20
2023-01-13T14:24:22.480Z,26.40
2023-01-13T14:26:53.648Z,26.73
2023-01-13T14:29:24.517Z,26.27
2023-01-13T14:31:57.680Z,24.75
2023-01-13T14:34:33.302Z,27.52
2023-01-13T14:37:01.345Z,21.77
2023-01-13T14:39:40.475Z,27.33
2023-01-13T14:42:18.991Z,24.75
2023-01-13T14:44:49.873Z,22.25
2023-01-13T14:47:23.013Z,25.50
2023-01-13T14:50:04.757Z,28.08
2023-01-13T14:52:40.270Z,24.13
2023-01-13T14:55:10.335Z,25.65
2023-01-13T14:57:41.463Z,27.67
2023-01-13T15:00:14.189Z,21.60
2023-01-13T15:02:53.566Z,22.88
2023-01-13T15:05:22.561Z,25.58
2023-01-13T15:08:14.703Z,24.15
2023-01-13T15:10:49.281Z,31.67
2023-01-13T15:13:32.255Z,26.70
2023-01-13T15:16:01.492Z,27.77
2023-01-13T15:20:57.217Z,26.48
2023-01-13T15:23:26.031Z,26.40
2023-01-13T15:25:54.998Z,29.92
2023-01-13T15:28:28.280Z,29.25
2023-01-13T15:30:58.149Z,30.58
2023-01-13T15:33:24.796Z,34.45
2023-01-13T15:35:55.385Z,29.75
2023-01-13T15:38:23.912Z,28.60
2023-01-13T15:40:55.761Z,30.80
2023-01-13T15:43:42.347Z,31.45
2023-01-13T15:46:19.997Z,32.75
2023-01-13T15:48:46.885Z,30.70
2023-01-13T15:51:24.269Z,32.60
2023-01-13T15:56:26.639Z,30.20
2023-01-13T15:58:53.594Z,32.33
2023-01-13T16:01:20.810Z,30.10
2023-01-13T16:03:47.669Z,32.40
2023-01-13T16:06:20.868Z,33.20
2023-01-13T16:08:47.728Z,31.08
2023-01-13T16:11:16.843Z,26.15
2023-01-13T16:13:45.884Z,30.52
2023-01-13T16:16:27.072Z,30.98
2023-01-13T16:18:54.480Z,32.35
2023-01-13T16:21:22.235Z,31.00
2023-01-13T16:23:49.979Z,29.40
2023-01-13T16:26:25.588Z,33.90
2023-01-13T16:28:54.549Z,33.88
2023-01-13T16:31:26.706Z,36.83
2023-01-13T16:33:56.047Z,31.70
2023-01-13T16:38:57.262Z,27.00
2023-01-13T16:41:25.101Z,32.60
2023-01-13T16:43:52.704Z,35.92
2023-01-13T16:47:09.312Z,29.67
2023-01-13T16:49:40.737Z,29.80
2023-01-13T16:52:49.219Z,27.40
2023-01-13T16:55:28.014Z,29.73
2023-01-13T16:58:07.531Z,31.33
2023-01-13T17:00:35.366Z,29.45
2023-01-13T17:03:05.193Z,29.52
2023-01-13T17:05:31.823Z,33.35
2023-01-13T17:08:07.975Z,42.95
2023-01-13T17:10:52.916Z,46.92
2023-01-13T17:13:48.589Z,37.10
2023-01-13T17:16:17.909Z,35.13
2023-01-13T17:18:48.192Z,35.67
2023-01-13T17:21:42.862Z,32.47
2023-01-13T17:24:12.398Z,24.15
2023-01-13T17:26:48.981Z,31.13
2023-01-13T17:29:22.299Z,29.55
2023-01-13T17:31:52.685Z,29.58
2023-01-13T17:34:20.268Z,29.23
2023-01-13T17:36:46.976Z,32.30
2023-01-13T17:39:19.083Z,29.35
2023-01-13T17:42:01.386Z,31.80
2023-01-13T17:44:31.004Z,27.13
2023-01-13T17:47:00.336Z,29.20
2023-01-13T17:51:53.515Z,27.02
2023-01-13T17:54:21.121Z,32.55
2023-01-13T17:56:56.481Z,32.53
2023-01-13T17:59:24.307Z,35.35
2023-01-13T18:01:53.531Z,38.33
2023-01-13T18:07:48.569Z,31.30
2023-01-13T18:10:17.476Z,26.30
2023-01-13T18:12:44.063Z,29.27
2023-01-13T18:15:12.688Z,24.52
2023-01-13T18:17:39.259Z,28.80
2023-01-13T18:20:24.711Z,27.83
2023-01-13T18:23:14.782Z,24.60
2023-01-13T18:28:50.803Z,25.67
2023-01-13T18:31:21.840Z,23.73
2023-01-13T18:33:48.358Z,25.98
2023-01-13T18:36:17.253Z,24.80
2023-01-13T18:38:46.388Z,26.55
2023-01-13T18:41:31.470Z,27.33
2023-01-13T18:44:28.888Z,26.05
2023-01-13T18:46:57.954Z,28.67
2023-01-13T18:49:26.771Z,27.20
2023-01-13T18:51:56.068Z,25.80
2023-01-13T18:56:50.157Z,27.55
2023-01-13T18:59:26.752Z,25.63
2023-01-13T19:01:53.524Z,23.85
2023-01-13T19:04:22.306Z,25.52
2023-01-13T19:06:51.921Z,25.92
2023-01-13T19:09:22.751Z,30.38
2023-01-13T19:11:50.502Z,30.05
2023-01-13T19:14:34.122Z,38.45
2023-01-13T19:17:03.612Z,26.58
2023-01-13T19:19:31.579Z,27.75
2023-01-13T19:22:03.254Z,26.08
2023-01-13T19:24:32.183Z,25.27
2023-01-13T19:26:58.901Z,27.42
2023-01-13T19:29:28.100Z,26.23
2023-01-13T19:34:26.920Z,25.52
2023-01-13T19:36:53.943Z,23.90
2023-01-13T19:39:21.590Z,29.27
2023-01-13T19:42:28.326Z,25.23
2023-01-13T19:45:25.174Z,27.92
2023-01-13T19:47:55.271Z,26.98
2023-01-13T19:51:08.561Z,25.45
2023-01-13T19:53:38.195Z,30.67
2023-01-13T19:56:10.638Z,29.13
2023-01-13T20:01:41.509Z,28.48
2023-01-13T20:04:21.961Z,33.05
2023-01-13T20:06:48.669Z,31.80
2023-01-13T20:09:23.710Z,30.15
2023-01-13T20:12:17.223Z,26.23
2023-01-13T20:14:51.645Z,28.67
2023-01-13T20:17:44.190Z,28.90
2023-01-13T20:20:16.900Z,25.73
2023-01-13T20:23:13.269Z,30.67
2023-01-13T20:25:51.713Z,34.42
2023-01-13T20:28:20.129Z,32.53
2023-01-13T20:31:27.433Z,30.80
2023-01-13T20:34:05.407Z,34.88
2023-01-13T20:36:48.809Z,28.92
2023-01-13T20:39:32.833Z,29.27
2023-01-13T20:42:18.218Z,31.55
2023-01-13T20:44:47.413Z,34.92
2023-01-13T20:47:21.832Z,30.02
2023-01-13T20:50:44.589Z,38.72
2023-01-13T20:53:11.343Z,32.08
2023-01-13T20:55:40.005Z,30.70
2023-01-13T20:58:06.766Z,28.65
2023-01-13T21:00:48.567Z,30.90
2023-01-13T21:03:24.707Z,34.67
2023-01-13T21:05:54.060Z,31.50
2023-01-13T21:08:20.797Z,32.80
2023-01-13T21:10:49.939Z,33.55
2023-01-13T21:13:35.273Z,33.78
2023-01-13T21:16:05.032Z,34.10
2023-01-13T21:18:52.807Z,31.88
2023-01-13T21:23:58.428Z,32.92
2023-01-13T21:26:25.189Z,32.38
2023-01-13T21:28:59.302Z,38.03
2023-01-13T21:31:27.158Z,31.77
2023-01-13T21:33:57.902Z,34.53
2023-01-13T21:36:25.092Z,36.50
2023-01-13T21:38:52.902Z,37.17
2023-01-13T21:41:40.041Z,46.28
2023-01-13T21:44:34.205Z,41.45
2023-01-13T21:47:22.036Z,49.45
2023-01-13T21:52:16.010Z,37.97
2023-01-13T21:55:01.324Z,37.08
2023-01-13T21:57:35.427Z,32.60
2023-01-13T22:00:02.238Z,41.75
2023-01-13T22:02:39.902Z,36.20
2023-01-13T22:05:08.597Z,37.83
2023-01-13T22:07:36.873Z,36.10
2023-01-13T22:10:07.038Z,35.65
2023-01-13T22:12:34.083Z,39.33
2023-01-13T22:15:03.622Z,36.13
2023-01-13T22:17:32.304Z,34.10
2023-01-13T22:20:03.303Z,42.55
2023-01-13T22:22:35.263Z,42.72
2023-01-13T22:25:23.461Z,41.13
2023-01-13T22:27:50.073Z,45.83
2023-01-13T22:30:22.015Z,43.67
2023-01-13T22:32:53.356Z,44.58
2023-01-13T22:35:20.829Z,49.25
2023-01-13T22:37:47.564Z,40.92
2023-01-13T22:40:17.141Z,42.05
2023-01-13T22:42:48.329Z,41.80
2023-01-13T22:45:15.326Z,45.40
2023-01-13T22:47:42.676Z,43.38
2023-01-13T22:50:13.309Z,40.53
2023-01-13T22:52:40.347Z,46.33
2023-01-13T22:55:07.644Z,41.40
2023-01-13T22:57:46.699Z,39.47
2023-01-13T23:00:15.069Z,45.40
2023-01-13T23:02:42.109Z,45.85
2023-01-13T23:05:13.907Z,41.88
2023-01-13T23:07:40.965Z,39.00
2023-01-13T23:10:07.963Z,43.47
2023-01-13T23:12:39.400Z,46.03
2023-01-13T23:15:06.564Z,43.03
2023-01-13T23:17:33.456Z,45.35
2023-01-13T23:20:03.562Z,40.92
2023-01-13T23:22:30.652Z,36.55
2023-01-13T23:24:57.673Z,43.47
2023-01-13T23:27:24.775Z,37.35
2023-01-13T23:29:51.484Z,38.50
2023-01-13T23:32:18.514Z,40.20
2023-01-13T23:34:45.517Z,43.13
2023-01-13T23:37:12.343Z,39.80
2023-01-13T23:39:39.135Z,43.30
2023-01-13T23:42:06.166Z,46.75
2023-01-13T23:44:33.234Z,50.67
2023-01-13T23:46:59.971Z,45.95
2023-01-13T23:49:26.946Z,49.45
2023-01-13T23:51:53.626Z,43.53
2023-01-13T23:54:20.643Z,45.28
2023-01-13T23:56:49.824Z,47.17
2023-01-13T23:59:16.535Z,42.63
